Flight Track Log - Related Links

Times and Time Zones

All times are in EDT time to prevent confusion due to time zone crossing. See the FLG3735 flight status page for this flight to view local times or setup timezone preferences in your user account.

Time Position Orientation Groundspeed Altitude Reporting Facility
EDT Latitude Longitude Course Direction KTS MPH feet Rate Location/Type
Sun 10:41:08 PM 42.2017 -83.3553 90° East 143 165 1,500  Level Cleveland Center
Sun 10:42:35 PM 42.1394 -83.3386 169° South 171 197 3,800 1,796 Climbing Cleveland Center
Sun 10:43:35 PM 42.1061 -83.2506 117° Southeast 212 244 5,900 2,150 Climbing Cleveland Center
Sun 10:44:00 PM 42.3095 -82.7857 75° East  Level FlightAware Approximate
Sun 10:44:35 PM 42.1353 -83.1647 65° Northeast 233 268 8,100  Level Cleveland Center
Sun 10:45:00 PM 42.3275 -82.6419 82° East  Level FlightAware Approximate
Sun 10:45:35 PM 42.1708 -83.0628 65° Northeast 266 306 10,400  Level Cleveland Center
Sun 10:46:00 PM 42.3500 -82.5001 90° East  Level FlightAware Approximate
Sun 10:46:35 PM 42.2044 -82.9517 68° East 297 342 11,900  Level Cleveland Center
Sun 10:47:35 PM 42.2422 -82.8353 66° East 319 367 13,400 1,500 Climbing Cleveland Center
Sun 10:48:35 PM 42.2842 -82.7106 66° East 339 390 14,900 1,500 Climbing Cleveland Center
Sun 10:49:35 PM 42.3239 -82.5856 67° East 350 403 16,400 1,450 Climbing Cleveland Center
Sun 10:50:35 PM 42.3617 -82.4575 68° East 357 411 17,800 1,300 Climbing Cleveland Center
Sun 10:51:35 PM 42.3617 -82.3197 90° East 357 411 19,000 1,100 Climbing Cleveland Center
Sun 10:52:35 PM 42.3553 -82.1792 93° East 363 418 20,000 1,050 Climbing Cleveland Center
Sun 10:53:35 PM 42.3492 -82.0217 93° East 376 433 21,100 1,050 Climbing Cleveland Center
Sun 10:54:35 PM 42.3425 -81.8697 93° East 391 450 22,100 1,000 Climbing Cleveland Center
Sun 10:55:35 PM 42.3378 -81.7292 93° East 386 444 23,100 750 Climbing Cleveland Center
Sun 10:56:35 PM 42.3308 -81.5803 94° East 386 444 23,600 450 Climbing Cleveland Center
Sun 10:57:35 PM 42.3236 -81.4453 94° East 391 450 24,000 450 Climbing Cleveland Center
Sun 10:58:35 PM 42.3164 -81.2936 94° East 396 456 24,500 500 Climbing Cleveland Center
Sun 10:59:35 PM 42.3089 -81.1447 94° East 401 461 25,000 500 Climbing Cleveland Center
Sun 11:00:35 PM 42.3011 -80.9931 94° East 401 461 25,500 500 Climbing Cleveland Center
Sun 11:01:35 PM 42.2931 -80.8414 94° East 406 467 26,000 500 Climbing Cleveland Center
Sun 11:02:35 PM 42.2831 -80.6731 95° East 406 467 26,500 500 Climbing Cleveland Center
Sun 11:03:35 PM 42.2747 -80.5158 94° East 406 467 27,000 500 Climbing Cleveland Center
Sun 11:04:35 PM 42.2661 -80.3644 94° East 406 467 27,500 550 Climbing Cleveland Center
Sun 11:05:35 PM 42.2594 -80.2100 93° East 406 467 28,100 550 Climbing Cleveland Center
Sun 11:06:35 PM 42.2486 -80.0558 95° East 406 467 28,600 450 Climbing Cleveland Center
Sun 11:07:35 PM 42.2417 -79.9156 94° East 406 467 29,000 450 Climbing Cleveland Center
Sun 11:08:35 PM 42.2322 -79.7617 95° East 406 467 29,500 500 Climbing Cleveland Center
Sun 11:09:35 PM 42.2478 -79.6069 82° East 406 467 30,000 500 Climbing Cleveland Center
Sun 11:10:35 PM 42.2669 -79.4497 81° East 406 467 30,500 500 Climbing Cleveland Center
Sun 11:11:35 PM 42.2842 -79.2950 81° East 412 474 31,000 250 Climbing Cleveland Center
Sun 11:12:35 PM 42.3011 -79.1375 82° East 412 474 31,000  Level Cleveland Center
Sun 11:13:35 PM 42.3197 -78.9797 81° East 412 474 31,000  Level Cleveland Center
Sun 11:14:35 PM 42.3361 -78.8022 83° East 423 487 31,000  Level Cleveland Center
Sun 11:15:35 PM 42.3542 -78.6361 82° East 428 493 31,000  Level Cleveland Center
Sun 11:16:35 PM 42.3722 -78.4753 81° East 434 499 31,000  Level Cleveland Center
Sun 11:17:35 PM 42.3897 -78.3061 82° East 434 499 31,000  Level Cleveland Center
Sun 11:18:35 PM 42.4033 -78.1453 83° East 434 499 31,000  Level Cleveland Center
Sun 11:19:35 PM 42.4203 -77.9786 82° East 439 505 31,000  Level Cleveland Center
Sun 11:20:35 PM 42.4394 -77.8175 81° East 444 511 31,000 -442 Level Cleveland Center
Sun 11:22:18 PM 42.4597 -77.5208 85° East 460 529 29,800 -736 Descending Boston Center
Sun 11:23:18 PM 42.4778 -77.3450 82° East 465 535 29,000 -400 Descending Boston Center
Sun 11:24:18 PM 42.4922 -77.2025 82° East 465 535 29,000  Level Boston Center
Sun 11:25:30 PM 42.5114 -76.9925 83° East 465 535 29,000  Level Boston Center
Sun 11:26:30 PM 42.5297 -76.7881 83° East 465 535 29,000  Level Boston Center
Sun 11:27:30 PM 42.5447 -76.6142 83° East 460 529 29,000  Level Boston Center
Sun 11:28:30 PM 42.5592 -76.4406 83° East 460 529 29,000  Level Boston Center
Sun 11:29:30 PM 42.5733 -76.2692 84° East 460 529 29,000 -150 Level Boston Center
Sun 11:30:30 PM 42.5850 -76.1119 84° East 460 529 28,700 -400 Descending Boston Center
Sun 11:31:30 PM 42.5989 -75.9350 84° East 465 535 28,200 -650 Descending Boston Center
Sun 11:32:30 PM 42.6144 -75.7639 83° East 460 529 27,400 -1,100 Descending Boston Center
Sun 11:33:30 PM 42.6236 -75.5892 86° East 460 529 26,000 -1,750 Descending Boston Center
Sun 11:34:30 PM 42.6386 -75.4206 83° East 455 524 23,900 -2,300 Descending Boston Center
Sun 11:35:30 PM 42.6533 -75.2464 83° East 462 532 21,400 -2,500 Descending Boston Center
Sun 11:36:30 PM 42.6658 -75.0803 84° East 456 525 18,900 -2,598 Descending Boston Center
Sun 11:37:07 PM 42.6725 -74.9647 85° East 450 518 17,200 -2,680 Descending Boston Center
Sun 11:38:13 PM 42.6847 -74.7844 85° East 420 483 14,300 -2,315 Descending Boston Center
Sun 11:39:14 PM 42.6961 -74.6322 84° East 399 459 12,300 -1,623 Descending Boston Center
Sun 11:40:15 PM 42.6906 -74.4853 93° East 383 441 11,000 -893 Descending Boston Center
Sun 11:41:15 PM 42.6842 -74.3636 94° East 315 362 10,500 -1,190 Descending Boston Center
Sun 11:42:16 PM 42.6797 -74.2533 93° East 282 325 8,600 -1,969 Descending Boston Center
Sun 11:43:23 PM 42.6733 -74.1258 94° East 294 338 6,300 -2,031 Descending Boston Center
Sun 11:44:23 PM 42.6667 -74.0214 95° East 275 316 4,300 -1,388 Descending Boston Center
Sun 11:45:24 PM 42.6617 -73.9281 94° East 236 272 3,500 -787 Descending Boston Center

Login

Don't have an account? Register now (free) for customized features, flight alerts, and more!